sensor_id;sensor_type;location;lat;lon;timestamp;pressure;altitude;pressure_sealevel;temperature;humidity
7433;BME280;32233;49.500;7.764;2023-02-08T00:00:51;100517.25;;;-4.05;84.63
7433;BME280;32233;49.500;7.764;2023-02-08T00:03:18;100515.19;;;-3.95;83.94
7433;BME280;32233;49.500;7.764;2023-02-08T00:05:44;100517.94;;;-3.78;81.38
7433;BME280;32233;49.500;7.764;2023-02-08T00:08:11;100507.97;;;-3.87;82.54
7433;BME280;32233;49.500;7.764;2023-02-08T00:10:37;100509.78;;;-3.67;77.75
7433;BME280;32233;49.500;7.764;2023-02-08T00:13:05;100507.31;;;-3.70;80.63
7433;BME280;32233;49.500;7.764;2023-02-08T00:15:31;100509.19;;;-3.74;79.67
7433;BME280;32233;49.500;7.764;2023-02-08T00:17:58;100512.53;;;-3.72;80.14
7433;BME280;32233;49.500;7.764;2023-02-08T00:20:25;100511.19;;;-3.60;78.51
7433;BME280;32233;49.500;7.764;2023-02-08T00:22:51;100506.03;;;-3.60;78.36
7433;BME280;32233;49.500;7.764;2023-02-08T00:25:18;100512.00;;;-3.58;78.09
7433;BME280;32233;49.500;7.764;2023-02-08T00:27:45;100502.56;;;-3.59;77.29
7433;BME280;32233;49.500;7.764;2023-02-08T00:30:12;100513.38;;;-3.50;77.59
7433;BME280;32233;49.500;7.764;2023-02-08T00:32:38;100510.81;;;-3.29;74.69
7433;BME280;32233;49.500;7.764;2023-02-08T00:35:05;100509.41;;;-3.16;73.47
7433;BME280;32233;49.500;7.764;2023-02-08T00:37:32;100509.59;;;-3.20;74.05
7433;BME280;32233;49.500;7.764;2023-02-08T00:39:59;100512.50;;;-3.28;74.07
7433;BME280;32233;49.500;7.764;2023-02-08T00:42:28;100505.34;;;-3.21;73.97
7433;BME280;32233;49.500;7.764;2023-02-08T00:44:55;100505.78;;;-3.12;71.69
7433;BME280;32233;49.500;7.764;2023-02-08T00:47:23;100509.88;;;-3.06;71.74
7433;BME280;32233;49.500;7.764;2023-02-08T00:49:50;100500.09;;;-3.20;73.70
7433;BME280;32233;49.500;7.764;2023-02-08T00:52:17;100502.34;;;-3.33;73.61
7433;BME280;32233;49.500;7.764;2023-02-08T00:54:44;100504.66;;;-3.47;75.28
7433;BME280;32233;49.500;7.764;2023-02-08T00:57:10;100509.22;;;-3.54;75.25
7433;BME280;32233;49.500;7.764;2023-02-08T00:59:37;100515.84;;;-3.68;76.84
7433;BME280;32233;49.500;7.764;2023-02-08T01:02:04;100512.78;;;-3.78;77.75
7433;BME280;32233;49.500;7.764;2023-02-08T01:04:31;100508.81;;;-3.65;76.98
7433;BME280;32233;49.500;7.764;2023-02-08T01:06:57;100513.44;;;-3.73;77.80
7433;BME280;32233;49.500;7.764;2023-02-08T01:09:24;100507.78;;;-3.61;77.30
7433;BME280;32233;49.500;7.764;2023-02-08T01:11:50;100509.72;;;-3.88;78.75
7433;BME280;32233;49.500;7.764;2023-02-08T01:14:17;100508.34;;;-3.75;77.93
7433;BME280;32233;49.500;7.764;2023-02-08T01:16:43;100504.38;;;-3.83;79.31
7433;BME280;32233;49.500;7.764;2023-02-08T01:19:12;100499.19;;;-4.05;79.39
7433;BME280;32233;49.500;7.764;2023-02-08T01:21:39;100498.34;;;-4.06;81.24
7433;BME280;32233;49.500;7.764;2023-02-08T01:24:07;100497.09;;;-3.95;77.83
7433;BME280;32233;49.500;7.764;2023-02-08T01:26:35;100493.56;;;-3.71;76.25
7433;BME280;32233;49.500;7.764;2023-02-08T01:29:04;100494.81;;;-3.59;75.97
7433;BME280;32233;49.500;7.764;2023-02-08T01:31:33;100494.31;;;-3.47;74.35
7433;BME280;32233;49.500;7.764;2023-02-08T01:34:01;100486.78;;;-3.53;73.81
7433;BME280;32233;49.500;7.764;2023-02-08T01:36:29;100486.78;;;-3.53;73.97
7433;BME280;32233;49.500;7.764;2023-02-08T01:38:56;100478.44;;;-3.60;75.54
7433;BME280;32233;49.500;7.764;2023-02-08T01:41:29;100487.97;;;-3.82;77.46
7433;BME280;32233;49.500;7.764;2023-02-08T01:46:39;100479.59;;;-3.67;74.94
7433;BME280;32233;49.500;7.764;2023-02-08T01:49:14;100475.00;;;-3.38;72.95
7433;BME280;32233;49.500;7.764;2023-02-08T01:51:55;100475.94;;;-3.41;72.46
7433;BME280;32233;49.500;7.764;2023-02-08T01:54:25;100477.25;;;-3.51;73.14
7433;BME280;32233;49.500;7.764;2023-02-08T01:56:52;100476.91;;;-3.43;72.36
7433;BME280;32233;49.500;7.764;2023-02-08T01:59:26;100475.50;;;-3.51;73.30
7433;BME280;32233;49.500;7.764;2023-02-08T02:01:55;100481.41;;;-3.47;72.18
7433;BME280;32233;49.500;7.764;2023-02-08T02:04:24;100479.13;;;-3.55;74.09
7433;BME280;32233;49.500;7.764;2023-02-08T02:06:54;100474.59;;;-3.50;73.80
7433;BME280;32233;49.500;7.764;2023-02-08T02:09:28;100476.34;;;-3.50;72.09
7433;BME280;32233;49.500;7.764;2023-02-08T02:11:58;100470.66;;;-3.38;71.08
7433;BME280;32233;49.500;7.764;2023-02-08T02:14:25;100466.75;;;-3.48;73.19
7433;BME280;32233;49.500;7.764;2023-02-08T02:16:52;100465.19;;;-3.52;72.58
7433;BME280;32233;49.500;7.764;2023-02-08T02:22:11;100457.81;;;-3.61;72.31
7433;BME280;32233;49.500;7.764;2023-02-08T02:33:36;100458.81;;;-3.86;74.13
7433;BME280;32233;49.500;7.764;2023-02-08T02:36:18;100463.91;;;-3.84;74.12
7433;BME280;32233;49.500;7.764;2023-02-08T02:39:04;100464.59;;;-3.79;73.39
7433;BME280;32233;49.500;7.764;2023-02-08T02:41:47;100463.97;;;-3.86;73.04
7433;BME280;32233;49.500;7.764;2023-02-08T02:44:45;100464.41;;;-3.75;73.86
7433;BME280;32233;49.500;7.764;2023-02-08T02:47:38;100461.66;;;-3.92;74.41
7433;BME280;32233;49.500;7.764;2023-02-08T02:50:31;100456.94;;;-3.82;75.89
7433;BME280;32233;49.500;7.764;2023-02-08T02:53:21;100446.72;;;-3.85;74.62
7433;BME280;32233;49.500;7.764;2023-02-08T02:55:55;100445.63;;;-4.00;75.81
7433;BME280;32233;49.500;7.764;2023-02-08T02:58:25;100448.84;;;-3.95;76.89
7433;BME280;32233;49.500;7.764;2023-02-08T03:00:54;100445.91;;;-3.86;76.51
7433;BME280;32233;49.500;7.764;2023-02-08T03:03:25;100438.31;;;-3.90;76.39
7433;BME280;32233;49.500;7.764;2023-02-08T03:05:55;100434.25;;;-4.18;76.06
7433;BME280;32233;49.500;7.764;2023-02-08T03:11:35;100439.38;;;-4.16;78.29
7433;BME280;32233;49.500;7.764;2023-02-08T03:14:26;100433.94;;;-4.10;77.16
7433;BME280;32233;49.500;7.764;2023-02-08T03:17:21;100440.53;;;-4.25;76.91
7433;BME280;32233;49.500;7.764;2023-02-08T03:20:17;100443.28;;;-4.30;76.21
7433;BME280;32233;49.500;7.764;2023-02-08T03:28:16;100435.84;;;-4.37;77.60
7433;BME280;32233;49.500;7.764;2023-02-08T03:30:57;100431.66;;;-4.40;78.03
7433;BME280;32233;49.500;7.764;2023-02-08T03:33:31;100436.34;;;-4.28;75.34
7433;BME280;32233;49.500;7.764;2023-02-08T03:36:16;100432.75;;;-4.24;76.86
7433;BME280;32233;49.500;7.764;2023-02-08T03:38:46;100436.28;;;-4.26;76.42
7433;BME280;32233;49.500;7.764;2023-02-08T03:41:19;100437.81;;;-4.20;77.59
7433;BME280;32233;49.500;7.764;2023-02-08T03:43:53;100442.78;;;-4.16;75.24
7433;BME280;32233;49.500;7.764;2023-02-08T03:46:28;100442.78;;;-4.16;75.07
7433;BME280;32233;49.500;7.764;2023-02-08T03:49:10;100449.16;;;-4.25;75.88
7433;BME280;32233;49.500;7.764;2023-02-08T03:51:38;100446.97;;;-4.35;79.42
7433;BME280;32233;49.500;7.764;2023-02-08T03:54:10;100448.34;;;-4.49;78.33
7433;BME280;32233;49.500;7.764;2023-02-08T03:56:50;100439.69;;;-4.47;79.84
7433;BME280;32233;49.500;7.764;2023-02-08T03:59:24;100439.91;;;-4.54;77.66
7433;BME280;32233;49.500;7.764;2023-02-08T04:01:57;100442.38;;;-4.51;78.89
7433;BME280;32233;49.500;7.764;2023-02-08T04:04:25;100441.31;;;-4.45;79.55
7433;BME280;32233;49.500;7.764;2023-02-08T04:06:53;100441.81;;;-4.59;84.14
7433;BME280;32233;49.500;7.764;2023-02-08T04:09:20;100440.97;;;-4.59;81.61
7433;BME280;32233;49.500;7.764;2023-02-08T04:11:47;100435.91;;;-4.62;81.41
7433;BME280;32233;49.500;7.764;2023-02-08T04:14:13;100431.91;;;-4.69;83.31
7433;BME280;32233;49.500;7.764;2023-02-08T04:16:40;100447.94;;;-4.85;81.83
7433;BME280;32233;49.500;7.764;2023-02-08T04:19:06;100435.13;;;-4.88;83.15
7433;BME280;32233;49.500;7.764;2023-02-08T04:21:33;100431.47;;;-4.82;81.82
7433;BME280;32233;49.500;7.764;2023-02-08T04:23:59;100427.69;;;-4.72;81.39
7433;BME280;32233;49.500;7.764;2023-02-08T04:26:26;100431.84;;;-4.68;79.40
7433;BME280;32233;49.500;7.764;2023-02-08T04:28:53;100434.34;;;-4.66;81.58
7433;BME280;32233;49.500;7.764;2023-02-08T04:31:19;100430.03;;;-4.89;83.77
7433;BME280;32233;49.500;7.764;2023-02-08T04:33:46;100430.06;;;-4.91;83.90
7433;BME280;32233;49.500;7.764;2023-02-08T04:36:12;100430.22;;;-4.94;84.14
7433;BME280;32233;49.500;7.764;2023-02-08T04:38:39;100427.34;;;-5.10;85.27
7433;BME280;32233;49.500;7.764;2023-02-08T04:41:05;100417.78;;;-5.08;83.74
7433;BME280;32233;49.500;7.764;2023-02-08T04:43:32;100428.44;;;-5.17;84.93
7433;BME280;32233;49.500;7.764;2023-02-08T04:45:58;100428.75;;;-5.26;86.38
7433;BME280;32233;49.500;7.764;2023-02-08T04:48:25;100428.78;;;-5.28;87.34
7433;BME280;32233;49.500;7.764;2023-02-08T04:50:56;100421.75;;;-5.22;84.93
7433;BME280;32233;49.500;7.764;2023-02-08T04:53:24;100422.88;;;-5.30;84.27
7433;BME280;32233;49.500;7.764;2023-02-08T04:55:50;100419.59;;;-5.10;84.41
7433;BME280;32233;49.500;7.764;2023-02-08T04:58:17;100420.03;;;-4.99;82.43
7433;BME280;32233;49.500;7.764;2023-02-08T05:00:44;100427.50;;;-5.14;84.57
7433;BME280;32233;49.500;7.764;2023-02-08T05:03:11;100417.38;;;-5.20;85.51
7433;BME280;32233;49.500;7.764;2023-02-08T05:05:37;100416.28;;;-5.13;85.33
7433;BME280;32233;49.500;7.764;2023-02-08T05:08:04;100412.25;;;-4.97;81.28
7433;BME280;32233;49.500;7.764;2023-02-08T05:10:30;100410.84;;;-4.82;79.52
7433;BME280;32233;49.500;7.764;2023-02-08T05:12:57;100411.91;;;-4.88;79.43
7433;BME280;32233;49.500;7.764;2023-02-08T05:15:23;100409.41;;;-4.89;79.88
7433;BME280;32233;49.500;7.764;2023-02-08T05:17:50;100417.19;;;-4.91;81.22
7433;BME280;32233;49.500;7.764;2023-02-08T05:20:16;100412.53;;;-4.81;80.36
7433;BME280;32233;49.500;7.764;2023-02-08T05:22:43;100408.06;;;-4.76;78.65
7433;BME280;32233;49.500;7.764;2023-02-08T05:25:10;100404.63;;;-4.53;75.29
7433;BME280;32233;49.500;7.764;2023-02-08T05:27:37;100403.09;;;-4.59;78.63
7433;BME280;32233;49.500;7.764;2023-02-08T05:30:03;100398.94;;;-4.39;74.23
7433;BME280;32233;49.500;7.764;2023-02-08T05:32:30;100404.81;;;-4.36;73.83
7433;BME280;32233;49.500;7.764;2023-02-08T05:34:56;100407.94;;;-4.28;73.44
7433;BME280;32233;49.500;7.764;2023-02-08T05:37:23;100411.09;;;-4.43;74.54
7433;BME280;32233;49.500;7.764;2023-02-08T05:39:49;100403.97;;;-4.36;74.29
7433;BME280;32233;49.500;7.764;2023-02-08T05:42:16;100407.75;;;-4.45;74.87
7433;BME280;32233;49.500;7.764;2023-02-08T05:44:42;100413.88;;;-4.47;74.25
7433;BME280;32233;49.500;7.764;2023-02-08T05:47:09;100416.34;;;-4.44;75.15
7433;BME280;32233;49.500;7.764;2023-02-08T05:49:35;100417.28;;;-4.47;74.74
7433;BME280;32233;49.500;7.764;2023-02-08T05:52:02;100410.66;;;-4.54;76.06
7433;BME280;32233;49.500;7.764;2023-02-08T05:54:28;100417.22;;;-4.45;74.02
7433;BME280;32233;49.500;7.764;2023-02-08T05:56:55;100415.72;;;-4.51;75.63
7433;BME280;32233;49.500;7.764;2023-02-08T05:59:21;100420.66;;;-4.45;75.53
7433;BME280;32233;49.500;7.764;2023-02-08T06:01:48;100426.75;;;-4.24;72.89
7433;BME280;32233;49.500;7.764;2023-02-08T06:04:14;100422.47;;;-4.25;73.11
7433;BME280;32233;49.500;7.764;2023-02-08T06:06:41;100427.97;;;-4.34;74.26
7433;BME280;32233;49.500;7.764;2023-02-08T06:09:07;100428.09;;;-4.37;73.90
7433;BME280;32233;49.500;7.764;2023-02-08T06:11:34;100425.03;;;-4.47;74.26
7433;BME280;32233;49.500;7.764;2023-02-08T06:14:01;100422.28;;;-4.42;74.44
7433;BME280;32233;49.500;7.764;2023-02-08T06:16:28;100429.72;;;-4.35;74.03
7433;BME280;32233;49.500;7.764;2023-02-08T06:18:55;100424.00;;;-4.43;74.29
7433;BME280;32233;49.500;7.764;2023-02-08T06:21:21;100427.78;;;-4.52;75.46
7433;BME280;32233;49.500;7.764;2023-02-08T06:23:49;100430.38;;;-4.52;75.05
7433;BME280;32233;49.500;7.764;2023-02-08T06:26:16;100435.59;;;-4.53;75.25
7433;BME280;32233;49.500;7.764;2023-02-08T06:28:42;100439.84;;;-4.52;76.03
7433;BME280;32233;49.500;7.764;2023-02-08T06:31:09;100441.47;;;-4.50;75.30
7433;BME280;32233;49.500;7.764;2023-02-08T06:33:35;100442.09;;;-4.43;74.76
7433;BME280;32233;49.500;7.764;2023-02-08T06:36:02;100441.72;;;-4.34;74.38
7433;BME280;32233;49.500;7.764;2023-02-08T06:38:28;100438.75;;;-4.45;75.39
7433;BME280;32233;49.500;7.764;2023-02-08T06:40:55;100446.69;;;-4.51;75.79
7433;BME280;32233;49.500;7.764;2023-02-08T06:43:21;100437.88;;;-4.45;75.26
7433;BME280;32233;49.500;7.764;2023-02-08T06:45:48;100435.00;;;-4.38;75.20
7433;BME280;32233;49.500;7.764;2023-02-08T06:48:14;100433.44;;;-4.42;76.08
7433;BME280;32233;49.500;7.764;2023-02-08T06:50:41;100432.78;;;-4.47;76.12
7433;BME280;32233;49.500;7.764;2023-02-08T06:53:08;100429.19;;;-4.43;75.38
7433;BME280;32233;49.500;7.764;2023-02-08T06:55:34;100439.56;;;-4.44;75.34
7433;BME280;32233;49.500;7.764;2023-02-08T06:58:01;100437.72;;;-4.41;75.08
7433;BME280;32233;49.500;7.764;2023-02-08T07:00:28;100433.78;;;-4.51;76.37
7433;BME280;32233;49.500;7.764;2023-02-08T07:02:54;100445.69;;;-4.47;76.19
7433;BME280;32233;49.500;7.764;2023-02-08T07:05:21;100441.53;;;-4.51;77.10
7433;BME280;32233;49.500;7.764;2023-02-08T07:07:47;100443.16;;;-4.49;77.39
7433;BME280;32233;49.500;7.764;2023-02-08T07:10:14;100444.50;;;-4.38;76.27
7433;BME280;32233;49.500;7.764;2023-02-08T07:12:41;100450.28;;;-4.55;77.02
7433;BME280;32233;49.500;7.764;2023-02-08T07:15:08;100447.03;;;-4.60;79.03
7433;BME280;32233;49.500;7.764;2023-02-08T07:17:35;100448.34;;;-4.49;77.55
7433;BME280;32233;49.500;7.764;2023-02-08T07:20:02;100438.78;;;-4.46;77.37
7433;BME280;32233;49.500;7.764;2023-02-08T07:22:28;100435.78;;;-4.36;76.32
7433;BME280;32233;49.500;7.764;2023-02-08T07:24:55;100441.13;;;-4.40;76.77
7433;BME280;32233;49.500;7.764;2023-02-08T07:27:21;100436.81;;;-4.40;77.19
7433;BME280;32233;49.500;7.764;2023-02-08T07:29:51;100441.63;;;-4.31;77.07
7433;BME280;32233;49.500;7.764;2023-02-08T07:32:17;100442.09;;;-4.21;76.70
7433;BME280;32233;49.500;7.764;2023-02-08T07:34:44;100434.78;;;-4.32;77.20
7433;BME280;32233;49.500;7.764;2023-02-08T07:37:11;100435.75;;;-4.12;75.74
7433;BME280;32233;49.500;7.764;2023-02-08T07:39:38;100447.66;;;-4.08;75.81
7433;BME280;32233;49.500;7.764;2023-02-08T07:42:05;100442.22;;;-4.02;75.46
7433;BME280;32233;49.500;7.764;2023-02-08T07:44:41;100441.31;;;-4.01;75.57
7433;BME280;32233;49.500;7.764;2023-02-08T07:47:08;100435.63;;;-3.87;75.15
7433;BME280;32233;49.500;7.764;2023-02-08T07:49:35;100436.69;;;-3.93;74.44
7433;BME280;32233;49.500;7.764;2023-02-08T07:52:02;100433.59;;;-3.79;73.78
7433;BME280;32233;49.500;7.764;2023-02-08T07:54:29;100439.28;;;-3.93;74.24
7433;BME280;32233;49.500;7.764;2023-02-08T07:56:55;100439.47;;;-3.76;73.50
7433;BME280;32233;49.500;7.764;2023-02-08T07:59:22;100441.78;;;-3.69;73.67
7433;BME280;32233;49.500;7.764;2023-02-08T08:01:49;100445.16;;;-3.67;73.14
7433;BME280;32233;49.500;7.764;2023-02-08T08:04:15;100450.00;;;-3.60;72.34
7433;BME280;32233;49.500;7.764;2023-02-08T08:06:42;100450.59;;;-3.53;72.72
7433;BME280;32233;49.500;7.764;2023-02-08T08:09:09;100439.16;;;-3.47;71.87
7433;BME280;32233;49.500;7.764;2023-02-08T08:11:35;100445.19;;;-3.27;71.33
7433;BME280;32233;49.500;7.764;2023-02-08T08:14:02;100442.19;;;-2.97;70.91
7433;BME280;32233;49.500;7.764;2023-02-08T08:16:28;100441.91;;;-2.91;70.63
7433;BME280;32233;49.500;7.764;2023-02-08T08:18:55;100442.25;;;-2.99;71.33
7433;BME280;32233;49.500;7.764;2023-02-08T08:21:21;100447.03;;;-2.89;70.58
7433;BME280;32233;49.500;7.764;2023-02-08T08:23:48;100433.09;;;-2.87;69.23
7433;BME280;32233;49.500;7.764;2023-02-08T08:26:20;100437.75;;;-2.75;68.54
7433;BME280;32233;49.500;7.764;2023-02-08T08:28:47;100437.16;;;-2.61;66.72
7433;BME280;32233;49.500;7.764;2023-02-08T08:31:19;100439.00;;;-2.45;66.75
7433;BME280;32233;49.500;7.764;2023-02-08T08:33:47;100436.78;;;-2.34;67.79
7433;BME280;32233;49.500;7.764;2023-02-08T08:36:15;100440.53;;;-2.04;66.00
7433;BME280;32233;49.500;7.764;2023-02-08T08:38:43;100438.38;;;-1.77;65.18
7433;BME280;32233;49.500;7.764;2023-02-08T08:41:12;100434.88;;;-1.41;62.78
7433;BME280;32233;49.500;7.764;2023-02-08T08:43:45;100428.66;;;-1.04;61.74
7433;BME280;32233;49.500;7.764;2023-02-08T08:46:13;100429.31;;;-1.33;62.95
7433;BME280;32233;49.500;7.764;2023-02-08T08:48:43;100426.06;;;-1.04;61.81
7433;BME280;32233;49.500;7.764;2023-02-08T08:51:12;100422.78;;;-0.90;60.15
7433;BME280;32233;49.500;7.764;2023-02-08T08:53:41;100428.03;;;-0.11;57.58
7433;BME280;32233;49.500;7.764;2023-02-08T08:56:10;100422.84;;;0.35;56.39
7433;BME280;32233;49.500;7.764;2023-02-08T08:58:38;100422.28;;;0.14;55.01
7433;BME280;32233;49.500;7.764;2023-02-08T09:01:05;100426.50;;;-0.46;56.69
7433;BME280;32233;49.500;7.764;2023-02-08T09:03:32;100425.28;;;-0.88;58.80
7433;BME280;32233;49.500;7.764;2023-02-08T09:06:00;100424.56;;;-1.08;58.77
7433;BME280;32233;49.500;7.764;2023-02-08T09:08:28;100421.81;;;-1.05;59.67
7433;BME280;32233;49.500;7.764;2023-02-08T09:11:03;100423.44;;;-1.37;60.03
7433;BME280;32233;49.500;7.764;2023-02-08T09:13:31;100423.75;;;-1.43;60.84
7433;BME280;32233;49.500;7.764;2023-02-08T09:16:07;100412.00;;;-1.33;59.24
7433;BME280;32233;49.500;7.764;2023-02-08T09:18:36;100418.41;;;-1.40;60.35
7433;BME280;32233;49.500;7.764;2023-02-08T09:21:07;100417.53;;;-1.23;60.68
7433;BME280;32233;49.500;7.764;2023-02-08T09:27:46;100425.31;;;-1.23;59.29
7433;BME280;32233;49.500;7.764;2023-02-08T09:35:40;100432.28;;;-1.06;58.41
7433;BME280;32233;49.500;7.764;2023-02-08T09:38:39;100423.56;;;-1.05;60.28
7433;BME280;32233;49.500;7.764;2023-02-08T09:42:19;100419.31;;;-0.90;58.12
7433;BME280;32233;49.500;7.764;2023-02-08T09:46:13;100413.75;;;0.12;56.31
7433;BME280;32233;49.500;7.764;2023-02-08T09:54:21;100400.22;;;3.60;46.22
7433;BME280;32233;49.500;7.764;2023-02-08T09:57:49;100397.66;;;3.84;44.61
7433;BME280;32233;49.500;7.764;2023-02-08T10:01:21;100397.25;;;4.26;43.23
7433;BME280;32233;49.500;7.764;2023-02-08T10:26:47;100381.56;;;5.39;40.44
7433;BME280;32233;49.500;7.764;2023-02-08T10:30:24;100382.75;;;4.90;41.00
7433;BME280;32233;49.500;7.764;2023-02-08T10:37:17;100371.09;;;5.39;40.35
7433;BME280;32233;49.500;7.764;2023-02-08T10:50:42;100359.53;;;5.97;38.22
7433;BME280;32233;49.500;7.764;2023-02-08T10:53:54;100362.06;;;6.40;38.12
7433;BME280;32233;49.500;7.764;2023-02-08T10:59:15;100349.84;;;5.86;37.67
7433;BME280;32233;49.500;7.764;2023-02-08T11:02:28;100348.09;;;5.75;38.01
7433;BME280;32233;49.500;7.764;2023-02-08T11:05:10;100344.13;;;6.66;36.79
7433;BME280;32233;49.500;7.764;2023-02-08T11:08:18;100336.75;;;5.75;37.73
7433;BME280;32233;49.500;7.764;2023-02-08T11:14:54;100330.44;;;5.77;38.43
7433;BME280;32233;49.500;7.764;2023-02-08T11:18:33;100330.28;;;6.64;37.16
7433;BME280;32233;49.500;7.764;2023-02-08T11:21:42;100328.44;;;7.16;35.55
7433;BME280;32233;49.500;7.764;2023-02-08T11:25:04;100321.63;;;6.31;38.39
7433;BME280;32233;49.500;7.764;2023-02-08T11:27:58;100329.69;;;7.22;36.67
7433;BME280;32233;49.500;7.764;2023-02-08T11:31:22;100314.59;;;6.83;38.32
7433;BME280;32233;49.500;7.764;2023-02-08T11:34:38;100317.22;;;6.74;38.42
7433;BME280;32233;49.500;7.764;2023-02-08T11:37:27;100314.16;;;7.09;37.77
7433;BME280;32233;49.500;7.764;2023-02-08T11:40:25;100310.84;;;6.25;39.28
7433;BME280;32233;49.500;7.764;2023-02-08T11:46:58;100299.16;;;6.90;37.04
7433;BME280;32233;49.500;7.764;2023-02-08T11:49:59;100303.78;;;6.04;36.70
7433;BME280;32233;49.500;7.764;2023-02-08T11:53:05;100293.63;;;7.53;34.20
7433;BME280;32233;49.500;7.764;2023-02-08T11:56:18;100297.22;;;7.42;34.94
7433;BME280;32233;49.500;7.764;2023-02-08T11:59:18;100286.84;;;9.57;31.96
7433;BME280;32233;49.500;7.764;2023-02-08T12:11:46;100286.59;;;5.68;36.12
7433;BME280;32233;49.500;7.764;2023-02-08T12:14:45;100290.22;;;5.56;37.40
7433;BME280;32233;49.500;7.764;2023-02-08T12:20:42;100277.56;;;6.35;35.27
7433;BME280;32233;49.500;7.764;2023-02-08T12:29:40;100279.09;;;5.20;37.31
7433;BME280;32233;49.500;7.764;2023-02-08T12:35:03;100275.06;;;5.05;36.25
7433;BME280;32233;49.500;7.764;2023-02-08T12:37:42;100269.47;;;4.64;37.99
7433;BME280;32233;49.500;7.764;2023-02-08T12:40:39;100270.19;;;4.55;39.95
7433;BME280;32233;49.500;7.764;2023-02-08T12:51:32;100253.84;;;4.18;38.16
7433;BME280;32233;49.500;7.764;2023-02-08T12:54:09;100252.81;;;4.43;38.28
7433;BME280;32233;49.500;7.764;2023-02-08T12:56:42;100246.72;;;4.31;39.26
7433;BME280;32233;49.500;7.764;2023-02-08T12:59:29;100237.09;;;4.20;38.32
7433;BME280;32233;49.500;7.764;2023-02-08T13:02:01;100234.97;;;4.37;39.03
7433;BME280;32233;49.500;7.764;2023-02-08T13:04:35;100231.88;;;4.65;46.59
7433;BME280;32233;49.500;7.764;2023-02-08T13:07:12;100232.59;;;3.87;40.58
7433;BME280;32233;49.500;7.764;2023-02-08T13:09:45;100235.75;;;4.15;41.05
7433;BME280;32233;49.500;7.764;2023-02-08T13:12:22;100227.78;;;3.35;41.48
7433;BME280;32233;49.500;7.764;2023-02-08T13:14:57;100218.63;;;3.64;42.49
7433;BME280;32233;49.500;7.764;2023-02-08T13:17:44;100219.09;;;3.69;40.27
7433;BME280;32233;49.500;7.764;2023-02-08T13:20:25;100216.97;;;3.63;40.26
7433;BME280;32233;49.500;7.764;2023-02-08T13:23:00;100221.97;;;3.78;39.59
7433;BME280;32233;49.500;7.764;2023-02-08T13:25:31;100226.44;;;4.00;40.00
7433;BME280;32233;49.500;7.764;2023-02-08T13:28:01;100218.34;;;4.03;40.10
7433;BME280;32233;49.500;7.764;2023-02-08T13:30:28;100210.06;;;4.76;37.91
7433;BME280;32233;49.500;7.764;2023-02-08T13:32:55;100200.22;;;5.12;37.84
7433;BME280;32233;49.500;7.764;2023-02-08T13:35:26;100201.09;;;5.33;36.48
7433;BME280;32233;49.500;7.764;2023-02-08T13:38:05;100206.03;;;5.27;36.39
7433;BME280;32233;49.500;7.764;2023-02-08T13:40:36;100198.97;;;4.72;39.57
7433;BME280;32233;49.500;7.764;2023-02-08T13:43:47;100195.38;;;4.96;38.48
7433;BME280;32233;49.500;7.764;2023-02-08T13:46:01;100193.03;;;4.48;39.87
7433;BME280;32233;49.500;7.764;2023-02-08T13:48:58;100192.00;;;3.11;42.81
7433;BME280;32233;49.500;7.764;2023-02-08T14:04:46;100185.88;;;2.13;46.70
7433;BME280;32233;49.500;7.764;2023-02-08T14:07:19;100197.22;;;1.87;48.77
7433;BME280;32233;49.500;7.764;2023-02-08T14:10:20;100192.75;;;2.02;50.13
7433;BME280;32233;49.500;7.764;2023-02-08T14:13:02;100190.34;;;1.98;49.38
7433;BME280;32233;49.500;7.764;2023-02-08T14:15:34;100184.59;;;1.93;50.86
7433;BME280;32233;49.500;7.764;2023-02-08T14:18:03;100185.75;;;1.89;50.38
7433;BME280;32233;49.500;7.764;2023-02-08T14:20:36;100191.28;;;2.23;49.21
7433;BME280;32233;49.500;7.764;2023-02-08T14:23:26;100190.97;;;2.02;49.14
7433;BME280;32233;49.500;7.764;2023-02-08T14:25:54;100186.56;;;1.90;49.67
7433;BME280;32233;49.500;7.764;2023-02-08T14:28:25;100181.47;;;2.01;49.78
7433;BME280;32233;49.500;7.764;2023-02-08T14:30:54;100183.56;;;1.96;50.11
7433;BME280;32233;49.500;7.764;2023-02-08T14:33:28;100183.34;;;1.73;49.63
7433;BME280;32233;49.500;7.764;2023-02-08T14:36:03;100183.75;;;1.80;50.91
7433;BME280;32233;49.500;7.764;2023-02-08T14:38:48;100173.84;;;1.72;50.98
7433;BME280;32233;49.500;7.764;2023-02-08T14:41:45;100177.91;;;1.64;51.79
7433;BME280;32233;49.500;7.764;2023-02-08T14:50:00;100175.69;;;1.58;50.58
7433;BME280;32233;49.500;7.764;2023-02-08T14:52:28;100172.06;;;1.60;50.63
7433;BME280;32233;49.500;7.764;2023-02-08T14:55:00;100170.16;;;1.62;50.34
7433;BME280;32233;49.500;7.764;2023-02-08T14:57:34;100163.41;;;1.60;50.71
7433;BME280;32233;49.500;7.764;2023-02-08T15:00:14;100159.03;;;1.60;50.83
7433;BME280;32233;49.500;7.764;2023-02-08T15:02:44;100139.63;;;1.64;50.17
7433;BME280;32233;49.500;7.764;2023-02-08T15:05:24;100154.50;;;1.49;51.01
7433;BME280;32233;49.500;7.764;2023-02-08T15:07:56;100152.34;;;1.43;51.45
7433;BME280;32233;49.500;7.764;2023-02-08T15:10:24;100151.72;;;1.53;51.30
7433;BME280;32233;49.500;7.764;2023-02-08T15:12:56;100146.06;;;1.46;51.37
7433;BME280;32233;49.500;7.764;2023-02-08T15:15:34;100141.88;;;1.31;51.97
7433;BME280;32233;49.500;7.764;2023-02-08T15:18:04;100139.47;;;1.28;52.05
7433;BME280;32233;49.500;7.764;2023-02-08T15:20:34;100150.91;;;1.25;52.29
7433;BME280;32233;49.500;7.764;2023-02-08T15:23:04;100140.09;;;1.31;50.87
7433;BME280;32233;49.500;7.764;2023-02-08T15:25:35;100133.75;;;1.22;50.83
7433;BME280;32233;49.500;7.764;2023-02-08T15:28:19;100140.69;;;1.22;51.33
7433;BME280;32233;49.500;7.764;2023-02-08T15:31:07;100133.41;;;1.14;52.06
7433;BME280;32233;49.500;7.764;2023-02-08T15:33:39;100128.19;;;1.14;52.69
7433;BME280;32233;49.500;7.764;2023-02-08T15:36:16;100129.81;;;1.03;52.25
7433;BME280;32233;49.500;7.764;2023-02-08T15:38:44;100121.06;;;1.04;51.88
7433;BME280;32233;49.500;7.764;2023-02-08T15:41:13;100125.09;;;0.95;53.01
7433;BME280;32233;49.500;7.764;2023-02-08T15:43:41;100130.16;;;0.84;52.60
7433;BME280;32233;49.500;7.764;2023-02-08T15:46:17;100125.59;;;0.87;51.03
7433;BME280;32233;49.500;7.764;2023-02-08T15:48:47;100127.06;;;0.91;52.67
7433;BME280;32233;49.500;7.764;2023-02-08T15:51:15;100123.78;;;0.75;53.77
7433;BME280;32233;49.500;7.764;2023-02-08T15:53:47;100122.41;;;0.69;55.16